createdAt,value
2023-09-27T00:02:41.537Z,9.77
2023-09-27T00:05:32.299Z,10.98
2023-09-27T00:08:22.260Z,9.77
2023-09-27T00:11:11.122Z,8.65
2023-09-27T00:14:00.004Z,9.87
2023-09-27T00:16:51.186Z,12.60
2023-09-27T00:19:40.094Z,8.90
2023-09-27T00:22:30.325Z,8.03
2023-09-27T00:25:19.022Z,8.25
2023-09-27T00:28:07.660Z,8.80
2023-09-27T00:30:56.879Z,7.63
2023-09-27T00:33:45.524Z,8.02
2023-09-27T00:36:34.404Z,9.32
2023-09-27T00:39:24.259Z,8.63
2023-09-27T00:42:14.123Z,9.18
2023-09-27T00:45:02.599Z,7.30
2023-09-27T00:47:53.383Z,8.50
2023-09-27T00:50:41.902Z,7.70
2023-09-27T00:53:33.062Z,12.05
2023-09-27T00:56:23.757Z,8.93
2023-09-27T00:59:12.401Z,10.98
2023-09-27T01:02:01.313Z,10.80
2023-09-27T01:04:50.371Z,12.07
2023-09-27T01:07:40.818Z,12.77
2023-09-27T01:10:29.689Z,12.65
2023-09-27T01:13:20.742Z,9.90
2023-09-27T01:16:09.580Z,10.73
2023-09-27T01:19:03.143Z,9.20
2023-09-27T01:21:52.050Z,11.40
2023-09-27T01:24:42.606Z,11.93
2023-09-27T01:27:31.401Z,12.52
2023-09-27T01:30:20.309Z,12.27
2023-09-27T01:33:09.739Z,11.88
2023-09-27T01:36:00.805Z,12.27
2023-09-27T01:38:49.617Z,13.07
2023-09-27T01:41:39.768Z,12.35
2023-09-27T01:44:28.496Z,12.38
2023-09-27T01:47:17.305Z,13.50
2023-09-27T01:50:07.287Z,12.60
2023-09-27T01:52:56.385Z,12.80
2023-09-27T01:55:45.872Z,12.95
2023-09-27T01:58:36.068Z,13.32
2023-09-27T02:01:24.881Z,12.20
2023-09-27T02:04:13.760Z,10.15
2023-09-27T02:07:02.585Z,12.10
2023-09-27T02:09:51.353Z,11.90
2023-09-27T02:12:40.622Z,12.63
2023-09-27T02:15:30.926Z,11.63
2023-09-27T02:18:19.788Z,10.40
2023-09-27T02:21:09.153Z,10.77
2023-09-27T02:23:57.945Z,9.20
2023-09-27T02:26:46.728Z,9.63
2023-09-27T02:29:36.333Z,9.67
2023-09-27T02:32:26.705Z,8.88
2023-09-27T02:35:16.225Z,7.80
2023-09-27T02:38:05.218Z,8.05
2023-09-27T02:40:54.146Z,8.30
2023-09-27T02:43:42.877Z,8.32
2023-09-27T02:46:31.575Z,8.05
2023-09-27T02:49:21.732Z,8.15
2023-09-27T02:52:11.095Z,7.80
2023-09-27T02:54:59.932Z,8.65
2023-09-27T02:57:54.339Z,8.30
2023-09-27T03:00:44.749Z,7.35
2023-09-27T03:03:35.055Z,8.35
2023-09-27T03:06:25.320Z,8.00
2023-09-27T03:09:14.654Z,8.15
2023-09-27T03:12:04.304Z,9.18
2023-09-27T03:14:53.202Z,8.88
2023-09-27T03:17:42.360Z,7.70
2023-09-27T03:20:32.863Z,7.55
2023-09-27T03:23:23.194Z,9.98
2023-09-27T03:26:12.158Z,8.80
2023-09-27T03:29:00.961Z,7.43
2023-09-27T03:31:49.835Z,9.77
2023-09-27T03:34:38.725Z,10.57
2023-09-27T03:37:27.640Z,8.85
2023-09-27T03:40:17.818Z,8.93
2023-09-27T03:43:06.677Z,12.57
2023-09-27T03:45:55.516Z,11.82
2023-09-27T03:48:44.337Z,14.23
2023-09-27T03:51:33.152Z,10.50
2023-09-27T03:54:21.964Z,9.80
2023-09-27T03:57:12.690Z,11.63
2023-09-27T04:00:01.468Z,11.90
2023-09-27T04:02:50.861Z,12.38
2023-09-27T04:05:39.892Z,11.30
2023-09-27T04:08:28.757Z,14.77
2023-09-27T04:11:17.606Z,10.65
2023-09-27T04:14:07.993Z,13.05
2023-09-27T04:17:00.945Z,10.85
2023-09-27T04:19:52.237Z,10.23
2023-09-27T04:22:41.302Z,10.32
2023-09-27T04:25:30.119Z,8.75
2023-09-27T04:28:18.883Z,8.25
2023-09-27T04:31:09.228Z,13.75
2023-09-27T04:33:58.149Z,11.90
2023-09-27T04:36:46.910Z,9.30
2023-09-27T04:39:35.750Z,9.77
2023-09-27T04:42:24.583Z,9.13
2023-09-27T04:45:14.083Z,9.10
2023-09-27T04:48:04.292Z,8.45
2023-09-27T04:50:53.041Z,10.80
2023-09-27T04:53:42.712Z,10.80
2023-09-27T04:56:31.771Z,10.32
2023-09-27T04:59:20.625Z,13.02
2023-09-27T05:02:09.421Z,9.88
2023-09-27T05:04:59.654Z,14.68
2023-09-27T05:07:49.320Z,14.07
2023-09-27T05:10:38.472Z,12.43
2023-09-27T05:13:28.282Z,14.25
2023-09-27T05:16:17.338Z,10.93
2023-09-27T05:19:06.226Z,13.45
2023-09-27T05:21:56.360Z,14.63
2023-09-27T05:24:45.149Z,11.50
2023-09-27T05:27:35.233Z,13.63
2023-09-27T05:30:23.948Z,12.67
2023-09-27T05:33:12.712Z,11.65
2023-09-27T05:36:01.478Z,10.33
2023-09-27T05:38:52.489Z,11.25
2023-09-27T05:41:41.503Z,11.52
2023-09-27T05:44:30.341Z,10.17
2023-09-27T05:47:19.627Z,9.45
2023-09-27T05:50:10.070Z,10.38
2023-09-27T05:53:00.845Z,9.07
2023-09-27T05:55:54.120Z,13.25
2023-09-27T05:58:43.208Z,13.57
2023-09-27T06:01:33.230Z,12.03
2023-09-27T06:04:22.151Z,11.60
2023-09-27T06:07:14.496Z,9.95
2023-09-27T06:10:03.631Z,13.95
2023-09-27T06:12:53.825Z,11.93
2023-09-27T06:15:42.750Z,12.88
2023-09-27T06:18:31.620Z,14.30
2023-09-27T06:21:20.432Z,12.65
2023-09-27T06:24:10.309Z,11.80
2023-09-27T06:26:59.139Z,14.95
2023-09-27T06:29:49.302Z,15.10
2023-09-27T06:32:38.379Z,12.70
2023-09-27T06:35:27.424Z,14.10
2023-09-27T06:38:20.774Z,14.82
2023-09-27T06:41:10.255Z,15.15
2023-09-27T06:43:59.330Z,14.88
2023-09-27T06:46:51.035Z,14.40
2023-09-27T06:49:40.117Z,16.47
2023-09-27T06:52:30.357Z,16.48
2023-09-27T06:55:19.859Z,12.05
2023-09-27T06:58:08.711Z,14.77
2023-09-27T07:00:57.586Z,15.82
2023-09-27T07:03:49.887Z,12.50
2023-09-27T07:06:38.813Z,12.25
2023-09-27T07:09:27.554Z,13.65
2023-09-27T07:12:16.353Z,14.65
2023-09-27T07:15:09.430Z,13.00
2023-09-27T07:17:58.469Z,13.65
2023-09-27T07:20:51.253Z,13.55
2023-09-27T07:23:40.358Z,13.73
2023-09-27T07:26:31.069Z,11.25
2023-09-27T07:29:20.053Z,14.80
2023-09-27T07:32:09.927Z,13.43
2023-09-27T07:34:59.896Z,10.17
2023-09-27T07:37:50.384Z,13.90
2023-09-27T07:40:39.245Z,13.60
2023-09-27T07:43:28.194Z,13.63
2023-09-27T07:46:19.031Z,13.57
2023-09-27T07:49:07.981Z,12.02
2023-09-27T07:51:56.874Z,14.43
2023-09-27T07:54:47.899Z,11.55
2023-09-27T07:57:37.397Z,16.27
2023-09-27T08:00:30.161Z,13.35
2023-09-27T08:03:20.282Z,12.75
2023-09-27T08:06:09.589Z,13.43
2023-09-27T08:08:59.046Z,11.80
2023-09-27T08:11:49.284Z,13.93
2023-09-27T08:14:38.444Z,13.95
2023-09-27T08:17:27.405Z,15.45
2023-09-27T08:20:16.420Z,15.60
2023-09-27T08:23:05.823Z,15.30
2023-09-27T08:25:56.796Z,14.07
2023-09-27T08:28:47.060Z,12.23
2023-09-27T08:31:39.024Z,12.45
2023-09-27T08:34:27.832Z,13.98
2023-09-27T08:37:16.675Z,14.82
2023-09-27T08:40:06.321Z,13.15
2023-09-27T08:42:58.756Z,12.80
2023-09-27T08:45:49.660Z,11.85
2023-09-27T08:48:38.972Z,12.80
2023-09-27T08:51:28.467Z,9.98
2023-09-27T08:54:18.698Z,11.30
2023-09-27T08:57:07.662Z,13.32
2023-09-27T08:59:56.850Z,10.60
2023-09-27T09:02:49.832Z,9.20
2023-09-27T09:05:39.263Z,12.25
2023-09-27T09:08:42.821Z,13.13
2023-09-27T09:11:32.940Z,10.10
2023-09-27T09:14:23.459Z,11.98
2023-09-27T09:17:15.942Z,12.95
2023-09-27T09:20:17.264Z,11.30
2023-09-27T09:23:13.842Z,12.35
2023-09-27T09:26:03.952Z,7.43
2023-09-27T09:28:57.618Z,7.63
2023-09-27T09:31:55.030Z,10.45
2023-09-27T09:34:44.482Z,7.82
2023-09-27T09:37:36.386Z,7.07
2023-09-27T09:40:25.926Z,9.65
2023-09-27T09:43:14.784Z,7.32
2023-09-27T09:46:05.063Z,7.00
2023-09-27T09:48:53.984Z,9.07
2023-09-27T09:51:43.818Z,6.22
2023-09-27T09:54:38.765Z,6.07
2023-09-27T09:57:49.478Z,6.13
2023-09-27T10:00:50.244Z,8.93
2023-09-27T10:03:41.769Z,7.13
2023-09-27T10:06:47.387Z,6.40
2023-09-27T10:09:39.270Z,4.70
2023-09-27T10:12:29.480Z,4.55
2023-09-27T10:15:19.481Z,5.00
2023-09-27T10:18:26.696Z,4.93
2023-09-27T10:21:16.051Z,4.43
2023-09-27T10:24:08.203Z,5.07
2023-09-27T10:26:58.457Z,3.78
2023-09-27T10:29:59.567Z,6.47
2023-09-27T10:32:50.292Z,5.00
2023-09-27T10:35:39.961Z,4.25
2023-09-27T10:38:48.778Z,2.93
2023-09-27T10:41:47.984Z,2.75
2023-09-27T10:44:42.753Z,2.75
2023-09-27T10:47:31.664Z,3.25
2023-09-27T10:50:30.230Z,2.60
2023-09-27T10:53:19.357Z,3.53
2023-09-27T10:56:08.219Z,2.63
2023-09-27T10:58:57.044Z,2.10
2023-09-27T11:01:49.291Z,2.22
2023-09-27T11:04:39.310Z,2.40
2023-09-27T11:07:42.993Z,3.03
2023-09-27T11:10:32.926Z,3.40
2023-09-27T11:13:22.622Z,2.53
2023-09-27T11:16:11.836Z,2.47
2023-09-27T11:19:03.590Z,3.10
2023-09-27T11:21:52.446Z,3.17
2023-09-27T11:24:41.833Z,3.20
2023-09-27T11:27:30.768Z,3.10
2023-09-27T11:30:25.793Z,3.60
2023-09-27T11:33:18.031Z,2.80
2023-09-27T11:36:08.869Z,4.38
2023-09-27T11:38:57.654Z,3.25
2023-09-27T11:41:47.065Z,2.53
2023-09-27T11:44:35.941Z,2.75
2023-09-27T11:47:24.835Z,2.95
2023-09-27T11:50:14.776Z,2.75
2023-09-27T11:53:05.713Z,4.38
2023-09-27T11:55:55.420Z,3.60
2023-09-27T11:58:44.259Z,3.17
2023-09-27T12:01:33.193Z,2.50
2023-09-27T12:04:22.548Z,3.85
2023-09-27T12:07:11.849Z,3.55
2023-09-27T12:10:02.408Z,5.97
2023-09-27T12:12:51.418Z,3.72
2023-09-27T12:15:40.240Z,5.35
2023-09-27T12:18:29.216Z,4.10
2023-09-27T12:21:18.325Z,3.47
2023-09-27T12:24:07.367Z,3.60
2023-09-27T12:26:57.596Z,2.83
2023-09-27T12:29:46.476Z,3.75
2023-09-27T12:32:35.383Z,3.00
2023-09-27T12:35:24.221Z,3.00
2023-09-27T12:38:13.225Z,3.60
2023-09-27T12:41:04.874Z,3.53
2023-09-27T12:43:55.066Z,3.50
2023-09-27T12:46:43.922Z,4.40
2023-09-27T12:49:32.774Z,4.07
2023-09-27T12:52:21.716Z,3.22
2023-09-27T12:55:11.827Z,2.90
2023-09-27T12:58:00.594Z,2.42
2023-09-27T13:00:50.800Z,3.20
2023-09-27T13:03:40.308Z,2.80
2023-09-27T13:06:29.233Z,2.60
2023-09-27T13:09:18.757Z,2.92
2023-09-27T13:12:08.245Z,3.38
2023-09-27T13:14:57.420Z,3.05
2023-09-27T13:17:48.089Z,5.47
2023-09-27T13:20:36.991Z,5.10
2023-09-27T13:23:25.789Z,2.40
2023-09-27T13:26:14.891Z,3.03
2023-09-27T13:29:03.788Z,4.82
2023-09-27T13:31:53.310Z,2.92
2023-09-27T13:34:43.589Z,4.30
2023-09-27T13:37:32.500Z,3.83
2023-09-27T13:40:21.324Z,4.40
2023-09-27T13:43:10.081Z,2.70
2023-09-27T13:45:58.866Z,3.15
2023-09-27T13:48:47.701Z,3.35
2023-09-27T13:51:38.143Z,2.97
2023-09-27T13:54:27.416Z,3.30
2023-09-27T13:57:16.214Z,3.25
2023-09-27T14:00:05.989Z,2.75
2023-09-27T14:02:54.946Z,2.80
2023-09-27T14:05:44.014Z,3.30
2023-09-27T14:08:34.492Z,2.83
2023-09-27T14:11:23.365Z,2.33
2023-09-27T14:14:14.512Z,2.60
2023-09-27T14:17:03.788Z,3.25
2023-09-27T14:19:53.080Z,3.03
2023-09-27T14:22:42.579Z,4.07
2023-09-27T14:25:34.504Z,3.15
2023-09-27T14:28:23.995Z,2.90
2023-09-27T14:31:13.164Z,3.67
2023-09-27T14:34:02.796Z,3.10
2023-09-27T14:36:51.978Z,2.70
2023-09-27T14:39:40.751Z,3.50
2023-09-27T14:42:30.988Z,3.63
2023-09-27T14:45:31.371Z,2.70
2023-09-27T14:48:21.263Z,2.90
2023-09-27T14:51:12.895Z,3.10
2023-09-27T14:54:01.774Z,3.72
2023-09-27T14:56:50.610Z,3.22
2023-09-27T14:59:40.724Z,4.18
2023-09-27T15:02:30.067Z,2.75
2023-09-27T15:05:18.925Z,3.47
2023-09-27T15:08:07.988Z,2.60
2023-09-27T15:10:56.996Z,3.40
2023-09-27T15:13:45.841Z,3.67
2023-09-27T15:16:36.168Z,3.00
2023-09-27T15:19:25.054Z,2.10
2023-09-27T15:22:15.796Z,2.47
2023-09-27T15:25:05.465Z,3.13
2023-09-27T15:27:55.685Z,1.98
2023-09-27T15:30:44.502Z,2.05
2023-09-27T15:33:35.192Z,2.55
2023-09-27T15:36:24.048Z,2.10
2023-09-27T15:39:13.028Z,1.80
2023-09-27T15:42:01.877Z,3.37
2023-09-27T15:44:51.122Z,2.20
2023-09-27T15:47:41.604Z,3.00
2023-09-27T15:50:31.803Z,2.40
2023-09-27T15:53:20.574Z,2.20
2023-09-27T15:56:11.653Z,2.13
2023-09-27T15:59:00.785Z,2.40
2023-09-27T16:01:49.804Z,2.85
2023-09-27T16:04:50.017Z,1.63
2023-09-27T16:07:43.273Z,1.60
2023-09-27T16:10:34.548Z,3.63
2023-09-27T16:13:23.940Z,3.10
2023-09-27T16:16:13.036Z,2.50
2023-09-27T16:19:02.598Z,2.00
2023-09-27T16:21:51.928Z,2.28
2023-09-27T16:24:42.109Z,2.65
2023-09-27T16:27:31.033Z,2.30
2023-09-27T16:30:19.964Z,1.95
2023-09-27T16:33:11.434Z,2.70
2023-09-27T16:36:00.314Z,2.30
2023-09-27T16:38:49.521Z,1.92
2023-09-27T16:41:39.835Z,2.78
2023-09-27T16:44:29.178Z,2.25
2023-09-27T16:47:18.050Z,1.90
2023-09-27T16:50:07.306Z,3.05
2023-09-27T16:52:56.148Z,2.10
2023-09-27T16:55:47.993Z,1.90
2023-09-27T16:58:38.258Z,2.47
2023-09-27T17:01:27.418Z,2.08
2023-09-27T17:04:16.283Z,1.87
2023-09-27T17:07:05.122Z,2.03
2023-09-27T17:09:53.916Z,2.40
2023-09-27T17:12:42.754Z,4.00
2023-09-27T17:15:32.908Z,2.38
2023-09-27T17:18:22.041Z,2.27
2023-09-27T17:21:10.966Z,2.53
2023-09-27T17:23:59.857Z,2.17
2023-09-27T17:26:48.689Z,2.20
2023-09-27T17:29:37.521Z,1.90
2023-09-27T17:32:29.053Z,2.42
2023-09-27T17:35:17.956Z,2.60
2023-09-27T17:38:09.844Z,2.10
2023-09-27T17:40:59.216Z,3.33
2023-09-27T17:43:48.139Z,2.20
2023-09-27T17:46:37.129Z,2.20
2023-09-27T17:49:27.624Z,2.53
2023-09-27T17:52:16.501Z,2.25
2023-09-27T17:55:05.823Z,2.30
2023-09-27T17:57:54.768Z,2.53
2023-09-27T18:00:44.852Z,3.10
2023-09-27T18:03:33.881Z,2.70
2023-09-27T18:06:24.228Z,2.88
2023-09-27T18:09:13.111Z,3.55
2023-09-27T18:12:12.498Z,2.70
2023-09-27T18:15:07.309Z,2.58
2023-09-27T18:18:02.643Z,3.03
2023-09-27T18:20:51.906Z,2.70
2023-09-27T18:23:42.436Z,2.78
2023-09-27T18:26:31.294Z,2.60
2023-09-27T18:29:20.172Z,2.90
2023-09-27T18:32:09.281Z,3.20
2023-09-27T18:34:58.247Z,2.90
2023-09-27T18:37:47.079Z,3.80
2023-09-27T18:40:38.539Z,4.60
2023-09-27T18:43:27.491Z,4.07
2023-09-27T18:46:16.385Z,4.90
2023-09-27T18:49:05.287Z,6.00
2023-09-27T18:51:54.610Z,4.80
2023-09-27T18:54:43.564Z,4.80
2023-09-27T18:57:33.758Z,7.20
2023-09-27T19:00:22.515Z,6.90
2023-09-27T19:03:11.426Z,3.88
2023-09-27T19:06:00.202Z,4.72
2023-09-27T19:08:49.034Z,4.20
2023-09-27T19:11:37.796Z,3.42
2023-09-27T19:14:30.415Z,3.60
2023-09-27T19:17:19.147Z,5.17
2023-09-27T19:20:09.999Z,4.90
2023-09-27T19:22:58.933Z,4.57
2023-09-27T19:25:48.029Z,5.38
2023-09-27T19:28:37.535Z,6.07
2023-09-27T19:31:27.973Z,5.83
2023-09-27T19:34:16.885Z,3.88
2023-09-27T19:37:05.632Z,3.35
2023-09-27T19:39:55.026Z,6.78
2023-09-27T19:42:43.942Z,6.43
2023-09-27T19:45:33.050Z,4.22
2023-09-27T19:48:23.233Z,7.20
2023-09-27T19:51:12.149Z,6.22
2023-09-27T19:54:01.785Z,6.20
2023-09-27T19:56:50.600Z,3.90
2023-09-27T19:59:39.436Z,6.67
2023-09-27T20:02:28.362Z,4.60
2023-09-27T20:05:19.420Z,4.77
2023-09-27T20:08:08.421Z,4.55
2023-09-27T20:10:58.288Z,4.18
2023-09-27T20:13:47.289Z,5.30
2023-09-27T20:16:36.125Z,6.03
2023-09-27T20:19:24.965Z,6.30
2023-09-27T20:22:15.155Z,4.65
2023-09-27T20:25:05.438Z,5.57
2023-09-27T20:27:54.207Z,5.87
2023-09-27T20:30:43.780Z,5.20
2023-09-27T20:33:32.556Z,4.35
2023-09-27T20:36:21.304Z,4.72
2023-09-27T20:39:11.561Z,4.57
2023-09-27T20:42:01.342Z,5.23
2023-09-27T20:44:50.328Z,4.10
2023-09-27T20:47:39.143Z,4.73
2023-09-27T20:50:28.066Z,4.63
2023-09-27T20:53:17.013Z,5.05
2023-09-27T20:56:07.485Z,4.55
2023-09-27T20:58:56.478Z,4.70
2023-09-27T21:01:47.330Z,5.80
2023-09-27T21:04:36.493Z,4.38
2023-09-27T21:07:25.378Z,4.93
2023-09-27T21:10:14.745Z,4.55
2023-09-27T21:13:05.341Z,3.05
2023-09-27T21:15:54.098Z,3.45
2023-09-27T21:18:42.920Z,4.47
2023-09-27T21:21:33.035Z,3.97
2023-09-27T21:24:21.931Z,5.30
2023-09-27T21:27:10.747Z,5.93
2023-09-27T21:30:01.131Z,4.40
2023-09-27T21:32:50.762Z,5.90
2023-09-27T21:35:39.539Z,6.30
2023-09-27T21:38:28.461Z,4.70
2023-09-27T21:41:17.254Z,4.80
2023-09-27T21:44:06.478Z,3.58
2023-09-27T21:46:56.783Z,4.30
2023-09-27T21:49:45.679Z,4.22
2023-09-27T21:52:37.087Z,5.75
2023-09-27T21:55:26.017Z,3.88
2023-09-27T21:58:14.893Z,4.50
2023-09-27T22:01:04.002Z,5.10
2023-09-27T22:03:54.393Z,3.60
2023-09-27T22:06:46.385Z,3.75
2023-09-27T22:09:35.399Z,3.95
2023-09-27T22:12:24.120Z,4.38
2023-09-27T22:15:13.146Z,4.05
2023-09-27T22:18:02.247Z,5.72
2023-09-27T22:20:55.054Z,4.03
2023-09-27T22:23:45.373Z,4.50
2023-09-27T22:26:34.677Z,5.03
2023-09-27T22:29:23.503Z,4.80
2023-09-27T22:32:14.024Z,5.13
2023-09-27T22:35:09.803Z,5.63
2023-09-27T22:38:01.557Z,3.90
2023-09-27T22:40:50.489Z,4.13
2023-09-27T22:43:39.323Z,4.63
2023-09-27T22:46:28.943Z,4.07
2023-09-27T22:49:18.592Z,3.97
2023-09-27T22:52:10.229Z,4.05
2023-09-27T22:55:00.739Z,3.20
2023-09-27T22:57:50.229Z,3.83
2023-09-27T23:00:40.548Z,3.80
2023-09-27T23:03:31.585Z,4.72
2023-09-27T23:06:21.735Z,4.97
2023-09-27T23:09:10.787Z,3.80
2023-09-27T23:12:17.273Z,6.05
2023-09-27T23:15:07.607Z,6.18
2023-09-27T23:18:12.055Z,4.80
2023-09-27T23:21:00.153Z,4.65
2023-09-27T23:23:57.346Z,5.55
2023-09-27T23:27:03.681Z,5.30
2023-09-27T23:29:56.826Z,4.10
2023-09-27T23:32:48.122Z,6.10
2023-09-27T23:35:40.943Z,4.93
2023-09-27T23:38:47.362Z,5.35
2023-09-27T23:41:41.059Z,5.88
2023-09-27T23:44:29.996Z,4.55
2023-09-27T23:47:23.403Z,5.47
2023-09-27T23:50:16.122Z,5.00
2023-09-27T23:53:06.712Z,5.68
2023-09-27T23:55:55.960Z,4.75
2023-09-27T23:58:44.941Z,5.30
